Scroll down
FLIGHT INFORMATION
Lufthansa Cargo

GEC51

At Arrival Gate

KSPS
 KSAT
DATE: 2021-03-20
GATE: 2
GATE DEPARTURE: 16:16
TAKEOFF: 16:22
DATE: 2021-03-20
GATE: 11
LANDING: 17:09
GATE ARRIVAL: 17:16
FLIGHT DATA
Crew: 
Speed: 
844 kph
Altitude: 
23,002 ft
Stage Length: 
495.4 km
Block Time: 
1 hrs
Flight Time: 
0.8 hrs
Fuel Used: 
7,675 kg
Cleared Route: KSPS SPS KARYN SHAKY MUZZO MQP DUFFA BUILT LLO STV REUBE HASDO RW13R
TRACK DATA
50,000 ft 1,000 kts
AIRCRAFT INFO AND CUMULATIVE STATS
Aircraft Type: 
B77LF
Registration: 
SELCAL: 
MSN/LN: 
66090 / 1596
Operator: 
Total Flights: 
5
Total Block Time: 
31.1 hrs
Total Flight Time: 
29.8 hrs
Total Fuel Used: 
257,159 kg
DATALINK LOG | Newest first | Current as of: 2022-12-07 07:10:13
LABEL SEQUENCE CONTENT Dn/Up
QD164717:16 22▼ Dn
QC094117:09▼ Dn
GA5033YOUR ASSIGNMENT IS STILL 11▲ Up
GR5023KSAT 17:07 MAAS 00 YP/UM 0/0 WCHR/S/C 0/0/0 HI-VAL NO▼ Dn
2U3830CYLT 201609Z 02606KT 9999 SCT010 M30/M32 A2956 RMK ADVANCED INTERPOLATION▲ Up
2S3913CYLT▼ Dn
5U3725KSAT 202029Z 11006KT 10SM SKC 14/04 A3038▲ Up
5S3813KSAT▼ Dn
2U3739KSAT 201551Z 13008KT 10SM CLR 14/04 A3038 RMK AO2 SLP276 T01440039▲ Up
2S3713KSAT▼ Dn
GA3722CARGO STAND 11▲ Up
GR3712KSAT 17:07 MAAS 00 YP/UM 0/0 WCHR/S/C 0/0/0 HI-VAL NO▼ Dn
QB230116:22▼ Dn
QA165416:16 38.9▼ Dn
Q00143[LINK ACK]▲ Up
Q00142[LINK TEST]▼ Dn


AIRCRAFT HISTORY
FLIGHT DATE FLIGHT NO. ORIGIN DESTINATION CLEARED ROUTE BLOCK TIME FLIGHT TIME FUEL USED PILOT
2021-03-22GEC51PGUM KSPS PGUM BAGBE HOPPY FONUG 17E50 RISBA 25E60 30E70 35E80 38N70 41N60 42N50 42N40 42N30 LATNE WNDEL ELY DVC PNH COMER RW15R12.8 hrs12.5 hrs235,857 lbWILLIAM BRIDGES
2021-03-22GEC51KSFO PGUM KSFO GNNRR ALCOA 38N30 38N40 38N50 37N60 35N70 32E80 28E70 23E60 20E55 DEWSS STINE FONUG HOPPY BAGBE UNZ RW06L11.5 hrs11.3 hrs217,872 lbWILLIAM BRIDGES
2021-03-21GEC51KSAT KSFO KSAT TREVA TATAR LEJON ALISS JCT FUSCO UNNOS HONDS CNX ABQ OAL INYOE KYLLA TROSE MOD LEEFF GROAN CEDES ARCHI RW28L3.5 hrs3.3 hrs58,329 lbWILLIAM BRIDGES
2021-03-20GEC51KSPS KSAT KSPS SPS KARYN SHAKY MUZZO MQP DUFFA BUILT LLO STV REUBE HASDO RW13R1 hrs0.8 hrs16,920 lbWILLIAM BRIDGES
2021-03-18GEC51MMGL KSPS MMGL GL406 GL405 GL410 GL411 OTOKI RABIL IMOSO MITIN ZCL MOV PNG JCT BULME RW33L2.3 hrs1.9 hrs37,962 lbWILLIAM BRIDGES